sensor_id;sensor_type;location;lat;lon;timestamp;P1;durP1;ratioP1;P2;durP2;ratioP2
57323;SDS011;43160;51.008;18.248;2024-03-08T00:05:19;63.90;;;19.00;;
57323;SDS011;43160;51.008;18.248;2024-03-08T00:15:10;52.30;;;16.00;;
57323;SDS011;43160;51.008;18.248;2024-03-08T00:25:02;58.20;;;13.30;;
57323;SDS011;43160;51.008;18.248;2024-03-08T00:34:55;90.90;;;20.10;;
57323;SDS011;43160;51.008;18.248;2024-03-08T00:44:41;61.10;;;15.70;;
57323;SDS011;43160;51.008;18.248;2024-03-08T00:54:23;42.60;;;13.20;;
57323;SDS011;43160;51.008;18.248;2024-03-08T01:04:06;89.30;;;27.20;;
57323;SDS011;43160;51.008;18.248;2024-03-08T01:13:51;91.00;;;22.10;;
57323;SDS011;43160;51.008;18.248;2024-03-08T01:23:34;72.30;;;22.40;;
57323;SDS011;43160;51.008;18.248;2024-03-08T01:33:23;82.70;;;23.20;;
57323;SDS011;43160;51.008;18.248;2024-03-08T01:53:24;95.60;;;21.70;;
57323;SDS011;43160;51.008;18.248;2024-03-08T02:03:07;108.00;;;25.10;;
57323;SDS011;43160;51.008;18.248;2024-03-08T02:12:50;91.40;;;24.10;;
57323;SDS011;43160;51.008;18.248;2024-03-08T02:22:35;82.70;;;26.00;;
57323;SDS011;43160;51.008;18.248;2024-03-08T02:32:21;89.80;;;25.60;;
57323;SDS011;43160;51.008;18.248;2024-03-08T02:42:06;97.90;;;21.20;;
57323;SDS011;43160;51.008;18.248;2024-03-08T02:59:12;106.80;;;28.80;;
57323;SDS011;43160;51.008;18.248;2024-03-08T03:08:57;84.80;;;25.70;;
57323;SDS011;43160;51.008;18.248;2024-03-08T03:18:45;77.10;;;25.70;;
57323;SDS011;43160;51.008;18.248;2024-03-08T03:28:33;85.00;;;25.50;;
57323;SDS011;43160;51.008;18.248;2024-03-08T03:38:17;85.50;;;22.60;;
57323;SDS011;43160;51.008;18.248;2024-03-08T03:48:05;102.80;;;26.10;;
57323;SDS011;43160;51.008;18.248;2024-03-08T03:57:52;84.40;;;25.60;;
57323;SDS011;43160;51.008;18.248;2024-03-08T04:07:36;87.20;;;24.70;;
57323;SDS011;43160;51.008;18.248;2024-03-08T04:17:23;93.10;;;22.50;;
57323;SDS011;43160;51.008;18.248;2024-03-08T04:27:10;78.30;;;23.20;;
57323;SDS011;43160;51.008;18.248;2024-03-08T04:36:56;122.90;;;28.20;;
57323;SDS011;43160;51.008;18.248;2024-03-08T04:46:40;100.40;;;26.30;;
57323;SDS011;43160;51.008;18.248;2024-03-08T04:56:25;79.20;;;24.30;;
57323;SDS011;43160;51.008;18.248;2024-03-08T05:06:09;94.80;;;25.90;;
57323;SDS011;43160;51.008;18.248;2024-03-08T05:15:56;117.30;;;26.80;;
57323;SDS011;43160;51.008;18.248;2024-03-08T05:25:45;105.00;;;27.30;;
57323;SDS011;43160;51.008;18.248;2024-03-08T05:35:36;113.80;;;27.90;;
57323;SDS011;43160;51.008;18.248;2024-03-08T05:45:24;99.90;;;24.40;;
57323;SDS011;43160;51.008;18.248;2024-03-08T05:55:09;117.70;;;27.80;;
57323;SDS011;43160;51.008;18.248;2024-03-08T06:04:57;101.60;;;24.50;;
57323;SDS011;43160;51.008;18.248;2024-03-08T06:14:44;160.70;;;33.10;;
57323;SDS011;43160;51.008;18.248;2024-03-08T06:24:31;109.10;;;31.30;;
57323;SDS011;43160;51.008;18.248;2024-03-08T06:34:15;85.60;;;28.20;;
57323;SDS011;43160;51.008;18.248;2024-03-08T06:44:04;167.80;;;40.30;;
57323;SDS011;43160;51.008;18.248;2024-03-08T06:53:49;131.10;;;34.20;;
57323;SDS011;43160;51.008;18.248;2024-03-08T07:03:41;122.40;;;30.50;;
57323;SDS011;43160;51.008;18.248;2024-03-08T07:13:29;109.20;;;29.80;;
57323;SDS011;43160;51.008;18.248;2024-03-08T07:23:14;114.80;;;32.10;;
57323;SDS011;43160;51.008;18.248;2024-03-08T07:33:27;86.60;;;25.90;;
57323;SDS011;43160;51.008;18.248;2024-03-08T07:43:13;98.10;;;28.60;;
57323;SDS011;43160;51.008;18.248;2024-03-08T07:53:05;85.70;;;24.40;;
57323;SDS011;43160;51.008;18.248;2024-03-08T08:02:55;111.80;;;31.00;;
57323;SDS011;43160;51.008;18.248;2024-03-08T08:12:50;94.10;;;26.40;;
57323;SDS011;43160;51.008;18.248;2024-03-08T08:22:39;81.80;;;24.80;;
57323;SDS011;43160;51.008;18.248;2024-03-08T08:32:34;95.50;;;26.80;;
57323;SDS011;43160;51.008;18.248;2024-03-08T08:42:34;98.80;;;26.40;;
57323;SDS011;43160;51.008;18.248;2024-03-08T08:52:19;80.20;;;24.90;;
57323;SDS011;43160;51.008;18.248;2024-03-08T09:02:05;75.50;;;24.40;;
57323;SDS011;43160;51.008;18.248;2024-03-08T09:11:51;85.80;;;28.50;;
57323;SDS011;43160;51.008;18.248;2024-03-08T09:21:39;74.00;;;27.20;;
57323;SDS011;43160;51.008;18.248;2024-03-08T09:31:25;82.70;;;28.30;;
57323;SDS011;43160;51.008;18.248;2024-03-08T09:41:09;74.00;;;26.80;;
57323;SDS011;43160;51.008;18.248;2024-03-08T09:51:00;77.40;;;32.20;;
57323;SDS011;43160;51.008;18.248;2024-03-08T10:01:07;61.50;;;23.80;;
57323;SDS011;43160;51.008;18.248;2024-03-08T10:10:53;49.40;;;20.70;;
57323;SDS011;43160;51.008;18.248;2024-03-08T10:20:37;50.00;;;21.30;;
57323;SDS011;43160;51.008;18.248;2024-03-08T10:30:25;59.90;;;19.50;;
57323;SDS011;43160;51.008;18.248;2024-03-08T10:40:15;45.90;;;21.30;;
57323;SDS011;43160;51.008;18.248;2024-03-08T10:50:36;41.20;;;20.30;;
57323;SDS011;43160;51.008;18.248;2024-03-08T11:00:21;45.20;;;20.50;;
57323;SDS011;43160;51.008;18.248;2024-03-08T11:10:52;43.80;;;19.40;;
57323;SDS011;43160;51.008;18.248;2024-03-08T11:21:03;47.10;;;19.40;;
57323;SDS011;43160;51.008;18.248;2024-03-08T11:41:16;37.70;;;19.50;;
57323;SDS011;43160;51.008;18.248;2024-03-08T11:51:07;32.90;;;19.00;;
57323;SDS011;43160;51.008;18.248;2024-03-08T12:01:07;33.40;;;19.60;;
57323;SDS011;43160;51.008;18.248;2024-03-08T12:11:04;28.40;;;14.10;;
57323;SDS011;43160;51.008;18.248;2024-03-08T12:20:50;31.80;;;16.30;;
57323;SDS011;43160;51.008;18.248;2024-03-08T12:30:50;32.10;;;18.20;;
57323;SDS011;43160;51.008;18.248;2024-03-08T12:40:50;20.20;;;8.90;;
57323;SDS011;43160;51.008;18.248;2024-03-08T12:50:42;26.10;;;15.50;;
57323;SDS011;43160;51.008;18.248;2024-03-08T13:00:33;25.80;;;16.50;;
57323;SDS011;43160;51.008;18.248;2024-03-08T13:10:22;23.60;;;13.70;;
57323;SDS011;43160;51.008;18.248;2024-03-08T13:20:14;29.10;;;16.00;;
57323;SDS011;43160;51.008;18.248;2024-03-08T13:30:07;23.10;;;14.60;;
57323;SDS011;43160;51.008;18.248;2024-03-08T13:39:55;30.90;;;14.90;;
57323;SDS011;43160;51.008;18.248;2024-03-08T13:49:43;22.30;;;13.40;;
57323;SDS011;43160;51.008;18.248;2024-03-08T13:59:31;26.70;;;15.70;;
57323;SDS011;43160;51.008;18.248;2024-03-08T14:09:24;22.00;;;14.50;;
57323;SDS011;43160;51.008;18.248;2024-03-08T14:19:19;22.10;;;12.90;;
57323;SDS011;43160;51.008;18.248;2024-03-08T14:26:38;24.60;;;16.40;;
57323;SDS011;43160;51.008;18.248;2024-03-08T14:36:24;22.00;;;13.60;;
57323;SDS011;43160;51.008;18.248;2024-03-08T14:46:11;20.20;;;11.20;;
57323;SDS011;43160;51.008;18.248;2024-03-08T14:56:13;25.10;;;11.90;;
57323;SDS011;43160;51.008;18.248;2024-03-08T15:06:08;21.40;;;12.10;;
57323;SDS011;43160;51.008;18.248;2024-03-08T15:16:10;25.30;;;12.60;;
57323;SDS011;43160;51.008;18.248;2024-03-08T15:26:16;25.00;;;12.00;;
57323;SDS011;43160;51.008;18.248;2024-03-08T15:36:10;26.40;;;12.80;;
57323;SDS011;43160;51.008;18.248;2024-03-08T15:46:05;26.10;;;12.60;;
57323;SDS011;43160;51.008;18.248;2024-03-08T15:56:03;26.00;;;13.90;;
57323;SDS011;43160;51.008;18.248;2024-03-08T16:06:02;30.70;;;14.50;;
57323;SDS011;43160;51.008;18.248;2024-03-08T16:15:52;25.50;;;8.80;;
57323;SDS011;43160;51.008;18.248;2024-03-08T16:25:42;22.30;;;9.10;;
57323;SDS011;43160;51.008;18.248;2024-03-08T16:35:28;42.80;;;15.90;;
57323;SDS011;43160;51.008;18.248;2024-03-08T16:45:20;44.50;;;14.10;;
57323;SDS011;43160;51.008;18.248;2024-03-08T16:55:10;33.70;;;13.40;;
57323;SDS011;43160;51.008;18.248;2024-03-08T17:05:15;43.40;;;13.80;;
57323;SDS011;43160;51.008;18.248;2024-03-08T17:15:13;60.10;;;18.60;;
57323;SDS011;43160;51.008;18.248;2024-03-08T17:25:14;57.70;;;19.90;;
57323;SDS011;43160;51.008;18.248;2024-03-08T17:35:15;104.30;;;24.80;;
57323;SDS011;43160;51.008;18.248;2024-03-08T17:45:13;95.40;;;23.40;;
57323;SDS011;43160;51.008;18.248;2024-03-08T17:55:06;47.30;;;17.20;;
57323;SDS011;43160;51.008;18.248;2024-03-08T18:04:53;45.90;;;16.40;;
57323;SDS011;43160;51.008;18.248;2024-03-08T18:14:37;43.60;;;16.40;;
57323;SDS011;43160;51.008;18.248;2024-03-08T18:24:24;48.20;;;16.60;;
57323;SDS011;43160;51.008;18.248;2024-03-08T18:34:11;40.40;;;12.10;;
57323;SDS011;43160;51.008;18.248;2024-03-08T18:44:00;46.20;;;12.60;;
57323;SDS011;43160;51.008;18.248;2024-03-08T18:53:46;45.90;;;16.10;;
57323;SDS011;43160;51.008;18.248;2024-03-08T19:03:33;61.40;;;19.90;;
57323;SDS011;43160;51.008;18.248;2024-03-08T19:13:23;65.10;;;20.10;;
57323;SDS011;43160;51.008;18.248;2024-03-08T19:23:10;72.90;;;25.30;;
57323;SDS011;43160;51.008;18.248;2024-03-08T19:33:02;46.20;;;17.70;;
57323;SDS011;43160;51.008;18.248;2024-03-08T19:42:50;33.00;;;12.90;;
57323;SDS011;43160;51.008;18.248;2024-03-08T19:52:49;56.00;;;15.10;;
57323;SDS011;43160;51.008;18.248;2024-03-08T20:02:51;52.60;;;13.90;;
57323;SDS011;43160;51.008;18.248;2024-03-08T20:12:42;27.20;;;8.10;;
57323;SDS011;43160;51.008;18.248;2024-03-08T20:22:41;37.80;;;12.60;;
57323;SDS011;43160;51.008;18.248;2024-03-08T20:32:39;36.80;;;13.10;;
57323;SDS011;43160;51.008;18.248;2024-03-08T20:42:31;36.60;;;10.00;;
57323;SDS011;43160;51.008;18.248;2024-03-08T20:52:17;29.90;;;10.10;;
57323;SDS011;43160;51.008;18.248;2024-03-08T21:02:00;25.80;;;9.50;;
57323;SDS011;43160;51.008;18.248;2024-03-08T21:11:45;30.60;;;11.40;;
57323;SDS011;43160;51.008;18.248;2024-03-08T21:21:31;36.00;;;11.30;;
57323;SDS011;43160;51.008;18.248;2024-03-08T21:31:18;47.00;;;15.90;;
57323;SDS011;43160;51.008;18.248;2024-03-08T21:41:09;34.40;;;15.20;;
57323;SDS011;43160;51.008;18.248;2024-03-08T21:50:55;53.60;;;15.80;;
57323;SDS011;43160;51.008;18.248;2024-03-08T22:00:43;34.80;;;10.70;;
57323;SDS011;43160;51.008;18.248;2024-03-08T22:10:29;36.80;;;12.50;;
57323;SDS011;43160;51.008;18.248;2024-03-08T22:20:21;50.10;;;16.10;;
57323;SDS011;43160;51.008;18.248;2024-03-08T22:30:10;66.00;;;22.20;;
57323;SDS011;43160;51.008;18.248;2024-03-08T22:39:55;129.20;;;37.00;;
57323;SDS011;43160;51.008;18.248;2024-03-08T22:49:41;46.90;;;15.00;;
57323;SDS011;43160;51.008;18.248;2024-03-08T22:59:34;63.90;;;20.50;;
57323;SDS011;43160;51.008;18.248;2024-03-08T23:09:19;84.20;;;20.00;;
57323;SDS011;43160;51.008;18.248;2024-03-08T23:19:04;65.30;;;17.10;;
57323;SDS011;43160;51.008;18.248;2024-03-08T23:28:53;42.10;;;13.90;;
57323;SDS011;43160;51.008;18.248;2024-03-08T23:38:37;45.40;;;16.30;;
57323;SDS011;43160;51.008;18.248;2024-03-08T23:48:22;49.10;;;13.60;;
57323;SDS011;43160;51.008;18.248;2024-03-08T23:58:08;81.90;;;22.10;;
